Seattle, Washington
Traffic Map
Current Weather Conditions
Seattle, Washington
Scattered Clouds
Scattered Clouds
45°
Feels Like: 42°
Wind Chill: 42° Ceiling: Unl
Heat Index: 45° Visibility: 10mi
Dew Point: 36° Wind: 6mph
Humidity: 71% Direction: 230° (SW)
Pressure: 30.19in Gusts: 0mph
Raw Report DataKBFI 222100Z 23005KT 10SM SCT025 07/02 A3019 RMK AO2 T00720022
Traffic Incident Summary
Active as of:
Severity:
Category:
InformationThere was an issue retrieving the traffic information for this location. Please try a different location or try again shortly.
Advertisements
Track Severe Weather on mobile